Terminal Aerodrome Forecast
Issued by NWS Paducah, KY

Home | Current Version | Previous Version | Text Only | Print | Product List | Glossary On
Versions: 1 2 3 4 5 6 7 8 9 10 11 12 13 14
000
FTUS43 KPAH 010520
TAFPAH
TAF
KPAH 010520Z 0106/0206 19003KT 6SM BR FEW060 BKN250
     FM010800 20003KT 4SM BR FEW250
     FM011400 24005KT P6SM BKN025
     FM011800 24007KT P6SM BKN035
     FM020200 30005KT P6SM FEW150=

USA.gov is the U.S. government's official web portal to all federal, state and local government web resources and services.